Time;durP1;ratioP1;P1;durP2;ratioP2;P2;SDS_P1;SDS_P2;PMS_P1;PMS_P2;Temp;Humidity;BMP_temperature;BMP_pressure;BME280_temperature;BME280_humidity;BME280_pressure;Samples;Min_cycle;Max_cycle;Signal;HPM_P1;HPM_P2
2022/01/06 00:00:36;;;;;;;7.80;3.83;;;;;;;;;;766633;183;919049;-65
2022/01/06 00:03:02;;;;;;;8.37;4.67;;;;;;;;;;760599;184;919010;-64
2022/01/06 00:05:28;;;;;;;7.10;4.13;;;;;;;;;;761721;184;919720;-63
2022/01/06 00:07:53;;;;;;;7.20;3.60;;;;;;;;;;772530;183;918123;-65
2022/01/06 00:10:19;;;;;;;7.77;3.60;;;;;;;;;;767518;183;919579;-65
2022/01/06 00:13:03;;;;;;;7.43;3.50;;;;;;;;;;767934;183;918616;-65
2022/01/06 00:18:09;;;;;;;6.43;3.37;;;;;;;;;;769665;183;919374;-65
2022/01/06 00:25:13;;;;;;;10.33;4.90;;;;;;;;;;765572;183;919184;-65
2022/01/06 00:27:39;;;;;;;11.10;4.70;;;;;;;;;;769742;183;625060;-65
2022/01/06 00:30:06;;;;;;;8.67;3.10;;;;;;;;;;766936;183;629410;-65
2022/01/06 00:32:31;;;;;;;6.03;3.93;;;;;;;;;;766480;183;643856;-66
2022/01/06 00:34:57;;;;;;;10.50;3.50;;;;;;;;;;771808;183;625236;-65
2022/01/06 00:37:23;;;;;;;7.93;3.40;;;;;;;;;;769327;179;628882;-65
2022/01/06 00:39:49;;;;;;;9.10;3.40;;;;;;;;;;768851;182;919139;-66
2022/01/06 00:42:16;;;;;;;14.00;3.70;;;;;;;;;;770596;183;918471;-65
2022/01/06 00:44:41;;;;;;;6.20;3.07;;;;;;;;;;764540;182;917954;-65
2022/01/06 00:47:06;;;;;;;6.60;4.03;;;;;;;;;;763631;183;917509;-65
2022/01/06 00:49:32;;;;;;;8.40;3.17;;;;;;;;;;767171;182;917443;-65
2022/01/06 00:51:58;;;;;;;14.97;3.70;;;;;;;;;;776791;180;919557;-65
2022/01/06 00:54:24;;;;;;;7.57;3.30;;;;;;;;;;763963;182;918144;-65
2022/01/06 00:56:50;;;;;;;8.43;3.40;;;;;;;;;;765318;182;1026664;-65
2022/01/06 00:59:16;;;;;;;6.30;3.33;;;;;;;;;;769305;183;928276;-65
2022/01/06 01:01:42;;;;;;;8.90;3.17;;;;;;;;;;762153;182;919449;-65
2022/01/06 01:04:07;;;;;;;5.60;4.07;;;;;;;;;;764672;182;919105;-65
2022/01/06 01:06:34;;;;;;;7.10;3.13;;;;;;;;;;774158;182;917724;-64
2022/01/06 01:08:59;;;;;;;6.67;3.33;;;;;;;;;;769157;182;919229;-65
2022/01/06 01:11:25;;;;;;;11.57;3.67;;;;;;;;;;764538;183;919380;-65
2022/01/06 01:13:56;;;;;;;6.33;3.40;;;;;;;;;;771611;183;918108;-65
2022/01/06 01:16:25;;;;;;;4.83;3.60;;;;;;;;;;768510;183;918635;-65
2022/01/06 01:18:46;;;;;;;7.57;4.00;;;;;;;;;;766271;183;918496;-65
2022/01/06 01:21:12;;;;;;;4.80;2.70;;;;;;;;;;768590;183;919500;-65
2022/01/06 01:23:38;;;;;;;8.17;3.47;;;;;;;;;;771804;182;918887;-66
2022/01/06 01:26:04;;;;;;;6.77;2.53;;;;;;;;;;767404;180;919676;-66
2022/01/06 01:28:33;;;;;;;5.90;3.17;;;;;;;;;;766463;182;918875;-66
2022/01/06 01:31:18;;;;;;;3.90;2.70;;;;;;;;;;773684;182;919278;-66
2022/01/06 01:33:29;;;;;;;5.67;3.43;;;;;;;;;;765663;183;919024;-65
2022/01/06 01:35:53;;;;;;;4.30;2.40;;;;;;;;;;768600;182;919622;-66
2022/01/06 01:38:19;;;;;;;16.40;3.10;;;;;;;;;;768883;182;919518;-66
2022/01/06 01:40:45;;;;;;;7.10;3.83;;;;;;;;;;772646;182;816083;-65
2022/01/06 01:43:11;;;;;;;6.15;3.50;;;;;;;;;;763974;183;919145;-65
2022/01/06 01:45:45;;;;;;;9.33;3.03;;;;;;;;;;765215;183;918910;-66
2022/01/06 01:48:04;;;;;;;7.43;3.57;;;;;;;;;;770654;183;946771;-66
2022/01/06 01:50:29;;;;;;;10.57;3.50;;;;;;;;;;768363;183;919769;-65
2022/01/06 01:52:56;;;;;;;11.53;3.30;;;;;;;;;;766935;183;919254;-66
2022/01/06 01:55:21;;;;;;;6.00;3.30;;;;;;;;;;768509;181;819670;-65
2022/01/06 01:57:47;;;;;;;5.73;3.50;;;;;;;;;;760121;183;919506;-65
2022/01/06 02:00:13;;;;;;;9.20;3.37;;;;;;;;;;764287;183;916156;-64
2022/01/06 02:02:39;;;;;;;6.80;3.47;;;;;;;;;;767484;183;918108;-66
2022/01/06 02:05:05;;;;;;;6.30;3.73;;;;;;;;;;775542;179;915073;-66
2022/01/06 02:07:31;;;;;;;6.75;3.28;;;;;;;;;;767005;183;919743;-66
2022/01/06 02:09:57;;;;;;;6.60;3.20;;;;;;;;;;764996;182;919551;-65
2022/01/06 02:12:23;;;;;;;8.93;4.17;;;;;;;;;;774959;180;919593;-66
2022/01/06 02:14:48;;;;;;;7.20;2.75;;;;;;;;;;765637;182;919841;-66
2022/01/06 02:17:14;;;;;;;7.17;2.80;;;;;;;;;;767546;182;919369;-65
2022/01/06 02:19:41;;;;;;;6.05;3.28;;;;;;;;;;771806;182;918477;-64
2022/01/06 02:22:07;;;;;;;4.43;2.50;;;;;;;;;;772463;180;917669;-66
2022/01/06 02:24:33;;;;;;;11.90;2.87;;;;;;;;;;766629;182;919263;-66
2022/01/06 02:26:58;;;;;;;4.57;2.70;;;;;;;;;;771029;182;916832;-65
2022/01/06 02:29:24;;;;;;;8.43;2.83;;;;;;;;;;774883;182;918842;-65
2022/01/06 02:31:50;;;;;;;4.80;2.50;;;;;;;;;;767962;182;921304;-65
2022/01/06 02:34:16;;;;;;;15.90;3.10;;;;;;;;;;767741;182;917705;-65
2022/01/06 02:36:42;;;;;;;10.87;2.90;;;;;;;;;;768365;182;918793;-64
2022/01/06 02:39:09;;;;;;;6.47;4.12;;;;;;;;;;767027;182;918152;-65
2022/01/06 02:41:33;;;;;;;4.33;2.83;;;;;;;;;;762904;181;914795;-64
2022/01/06 02:44:00;;;;;;;7.00;3.00;;;;;;;;;;768680;182;914555;-64
2022/01/06 02:46:25;;;;;;;5.63;3.00;;;;;;;;;;767347;182;920408;-65
2022/01/06 02:48:51;;;;;;;4.53;2.80;;;;;;;;;;768576;182;919420;-66
2022/01/06 02:51:17;;;;;;;6.03;2.45;;;;;;;;;;764000;180;918666;-65
2022/01/06 02:53:43;;;;;;;6.60;3.40;;;;;;;;;;770187;183;919004;-66
2022/01/06 02:56:08;;;;;;;7.20;2.83;;;;;;;;;;767122;183;919983;-65
2022/01/06 02:58:34;;;;;;;6.80;3.10;;;;;;;;;;766705;183;919712;-65
2022/01/06 03:01:00;;;;;;;4.53;2.80;;;;;;;;;;768761;183;919092;-64
2022/01/06 03:03:26;;;;;;;9.93;3.33;;;;;;;;;;765724;183;919163;-64
2022/01/06 03:05:52;;;;;;;4.53;2.90;;;;;;;;;;762620;183;919027;-65
2022/01/06 03:08:22;;;;;;;5.87;3.40;;;;;;;;;;768254;183;917648;-65
2022/01/06 03:10:44;;;;;;;8.47;3.60;;;;;;;;;;761636;183;919010;-65
2022/01/06 03:13:09;;;;;;;5.63;3.13;;;;;;;;;;769313;182;917462;-64
2022/01/06 03:15:35;;;;;;;8.43;3.63;;;;;;;;;;767383;181;918977;-65
2022/01/06 03:18:01;;;;;;;6.57;3.20;;;;;;;;;;771630;181;1014612;-65
2022/01/06 03:20:27;;;;;;;5.50;2.83;;;;;;;;;;765397;180;918191;-65
2022/01/06 03:22:53;;;;;;;6.72;2.95;;;;;;;;;;765023;183;916899;-65
2022/01/06 03:25:19;;;;;;;9.40;3.07;;;;;;;;;;772014;181;912431;-65
2022/01/06 03:27:44;;;;;;;5.43;3.20;;;;;;;;;;762729;182;919722;-65
2022/01/06 03:30:11;;;;;;;7.17;4.60;;;;;;;;;;763798;182;919652;-65
2022/01/06 03:32:37;;;;;;;10.30;3.57;;;;;;;;;;771702;182;918671;-67
2022/01/06 03:35:03;;;;;;;8.30;3.03;;;;;;;;;;766583;180;919250;-64
2022/01/06 03:37:28;;;;;;;9.37;3.47;;;;;;;;;;769787;182;919053;-67
2022/01/06 03:39:54;;;;;;;7.72;2.75;;;;;;;;;;770074;182;921217;-65
2022/01/06 03:42:20;;;;;;;8.63;4.00;;;;;;;;;;774953;180;918800;-65
2022/01/06 03:44:46;;;;;;;6.13;2.50;;;;;;;;;;765465;182;1004727;-65
2022/01/06 03:47:12;;;;;;;4.97;2.90;;;;;;;;;;765929;182;915406;-66
2022/01/06 03:49:38;;;;;;;10.00;2.83;;;;;;;;;;772269;182;915806;-65
2022/01/06 03:52:03;;;;;;;9.93;3.80;;;;;;;;;;763539;182;934309;-66
2022/01/06 03:54:29;;;;;;;7.23;3.00;;;;;;;;;;764191;183;915462;-65
2022/01/06 03:56:56;;;;;;;5.53;2.70;;;;;;;;;;769248;183;915949;-65
2022/01/06 03:59:21;;;;;;;7.03;3.10;;;;;;;;;;767053;183;915776;-65
2022/01/06 04:01:47;;;;;;;4.83;2.90;;;;;;;;;;763794;182;915926;-65
2022/01/06 04:04:13;;;;;;;5.27;3.17;;;;;;;;;;768531;183;918853;-66
2022/01/06 04:06:38;;;;;;;8.30;2.73;;;;;;;;;;766809;183;918915;-64
2022/01/06 04:09:04;;;;;;;7.53;3.30;;;;;;;;;;764947;183;921179;-65
2022/01/06 04:11:30;;;;;;;5.07;3.33;;;;;;;;;;765012;183;920892;-65
2022/01/06 04:13:56;;;;;;;4.90;3.20;;;;;;;;;;772841;183;920855;-65
2022/01/06 04:16:22;;;;;;;8.23;2.90;;;;;;;;;;764141;182;926680;-65
2022/01/06 04:18:48;;;;;;;6.93;3.20;;;;;;;;;;763667;182;920050;-64
2022/01/06 04:21:14;;;;;;;6.62;3.75;;;;;;;;;;768708;182;919396;-65
2022/01/06 04:23:39;;;;;;;7.10;3.20;;;;;;;;;;764480;182;918583;-64
2022/01/06 04:26:05;;;;;;;10.43;3.27;;;;;;;;;;764415;183;920875;-65
2022/01/06 04:28:31;;;;;;;7.23;3.20;;;;;;;;;;770199;182;918310;-66
2022/01/06 04:30:57;;;;;;;6.60;3.30;;;;;;;;;;765916;183;924940;-65
2022/01/06 04:33:23;;;;;;;4.57;2.60;;;;;;;;;;765528;182;919032;-64
2022/01/06 04:35:49;;;;;;;8.13;3.40;;;;;;;;;;768160;181;919278;-65
2022/01/06 04:38:14;;;;;;;6.33;3.50;;;;;;;;;;764959;183;919456;-65
2022/01/06 04:40:40;;;;;;;6.03;3.30;;;;;;;;;;761402;183;918799;-65
2022/01/06 04:43:07;;;;;;;7.37;2.85;;;;;;;;;;759466;183;918237;-65
2022/01/06 04:45:32;;;;;;;5.77;3.40;;;;;;;;;;759086;183;919936;-66
2022/01/06 04:47:58;;;;;;;8.43;3.27;;;;;;;;;;767244;182;917308;-65
2022/01/06 04:50:24;;;;;;;4.37;3.10;;;;;;;;;;768837;182;919755;-66
2022/01/06 04:52:49;;;;;;;6.87;3.20;;;;;;;;;;771642;182;918829;-64
2022/01/06 04:55:15;;;;;;;3.83;2.50;;;;;;;;;;766240;182;919266;-65
2022/01/06 04:57:41;;;;;;;7.90;2.90;;;;;;;;;;767523;182;919191;-65
2022/01/06 05:00:08;;;;;;;4.93;2.87;;;;;;;;;;769596;183;918278;-65
2022/01/06 05:02:33;;;;;;;5.83;3.37;;;;;;;;;;763957;183;1023712;-65
2022/01/06 05:04:59;;;;;;;5.53;3.00;;;;;;;;;;765292;182;921937;-65
2022/01/06 05:07:25;;;;;;;6.23;3.27;;;;;;;;;;769813;182;919228;-64
2022/01/06 05:09:51;;;;;;;3.47;2.43;;;;;;;;;;772815;182;918721;-65
2022/01/06 05:12:17;;;;;;;6.17;3.10;;;;;;;;;;765135;182;919158;-65
2022/01/06 05:14:43;;;;;;;6.80;3.27;;;;;;;;;;768994;183;919149;-65
2022/01/06 05:17:08;;;;;;;6.27;2.97;;;;;;;;;;774484;182;619205;-65
2022/01/06 05:19:34;;;;;;;7.37;3.47;;;;;;;;;;769994;183;631143;-65
2022/01/06 05:22:00;;;;;;;5.57;2.90;;;;;;;;;;767021;182;622028;-64
2022/01/06 05:24:26;;;;;;;3.90;3.30;;;;;;;;;;770469;182;632756;-65
2022/01/06 05:26:55;;;;;;;5.67;2.93;;;;;;;;;;767992;182;628939;-65
2022/01/06 05:29:18;;;;;;;5.57;2.83;;;;;;;;;;764263;182;919290;-66
2022/01/06 05:31:44;;;;;;;4.77;3.30;;;;;;;;;;766415;182;922693;-64
2022/01/06 05:34:09;;;;;;;4.43;2.83;;;;;;;;;;770357;183;918261;-65
2022/01/06 05:36:35;;;;;;;8.97;3.43;;;;;;;;;;765686;183;925402;-65
2022/01/06 05:39:01;;;;;;;6.97;3.60;;;;;;;;;;763959;183;1020417;-65
2022/01/06 05:41:27;;;;;;;5.67;3.43;;;;;;;;;;768395;183;906556;-64
2022/01/06 05:43:53;;;;;;;5.00;3.70;;;;;;;;;;765273;183;919645;-64
2022/01/06 05:46:19;;;;;;;4.70;3.10;;;;;;;;;;762721;181;1021273;-65
2022/01/06 05:48:44;;;;;;;7.70;4.80;;;;;;;;;;772811;181;919781;-66
2022/01/06 05:51:10;;;;;;;7.53;3.80;;;;;;;;;;773271;182;632206;-64
2022/01/06 05:53:36;;;;;;;6.27;3.13;;;;;;;;;;769668;182;626319;-66
2022/01/06 05:56:02;;;;;;;5.73;3.13;;;;;;;;;;771504;182;639328;-66
2022/01/06 05:58:28;;;;;;;8.03;3.60;;;;;;;;;;769151;184;661143;-65
2022/01/06 06:00:54;;;;;;;5.73;3.50;;;;;;;;;;770987;179;616768;-66
2022/01/06 06:03:19;;;;;;;7.80;3.60;;;;;;;;;;766435;183;640124;-67
2022/01/06 06:05:45;;;;;;;5.20;3.47;;;;;;;;;;775293;182;633305;-66
2022/01/06 06:08:11;;;;;;;5.53;3.40;;;;;;;;;;766924;183;919359;-67
2022/01/06 06:10:37;;;;;;;6.80;3.40;;;;;;;;;;767183;182;919708;-66
2022/01/06 06:13:03;;;;;;;6.50;3.17;;;;;;;;;;769474;182;918139;-66
2022/01/06 06:15:34;;;;;;;6.57;3.07;;;;;;;;;;765949;183;919090;-66
2022/01/06 06:17:54;;;;;;;9.97;3.50;;;;;;;;;;766495;182;921704;-66
2022/01/06 06:20:20;;;;;;;6.60;3.50;;;;;;;;;;771499;182;916049;-64
2022/01/06 06:22:46;;;;;;;9.87;4.33;;;;;;;;;;766167;182;916316;-65
2022/01/06 06:25:12;;;;;;;9.13;3.23;;;;;;;;;;763044;183;1121710;-64
2022/01/06 06:27:38;;;;;;;6.73;4.10;;;;;;;;;;767312;183;918115;-65
2022/01/06 06:30:04;;;;;;;6.95;3.15;;;;;;;;;;771544;179;915215;-65
2022/01/06 06:32:33;;;;;;;7.33;3.40;;;;;;;;;;767806;182;919688;-65
2022/01/06 06:34:56;;;;;;;11.57;3.23;;;;;;;;;;766477;182;926701;-65
2022/01/06 06:37:22;;;;;;;8.40;3.40;;;;;;;;;;769947;182;918258;-65
2022/01/06 06:39:47;;;;;;;7.53;3.30;;;;;;;;;;762738;182;919405;-66
2022/01/06 06:42:13;;;;;;;7.57;3.25;;;;;;;;;;768186;180;920643;-65
2022/01/06 06:44:39;;;;;;;10.73;3.43;;;;;;;;;;773221;182;917668;-66
2022/01/06 06:47:05;;;;;;;5.30;3.77;;;;;;;;;;764094;182;918864;-66
2022/01/06 06:49:31;;;;;;;5.37;3.37;;;;;;;;;;764486;183;919341;-65
2022/01/06 06:51:57;;;;;;;10.70;3.80;;;;;;;;;;764444;183;919635;-65
2022/01/06 06:54:23;;;;;;;7.53;3.90;;;;;;;;;;769669;183;917951;-65
2022/01/06 06:56:48;;;;;;;6.60;3.40;;;;;;;;;;761564;183;919104;-64
2022/01/06 06:59:14;;;;;;;10.33;4.80;;;;;;;;;;766982;180;918653;-65
2022/01/06 07:01:40;;;;;;;4.83;3.17;;;;;;;;;;773474;182;918929;-66
2022/01/06 07:04:06;;;;;;;4.97;3.03;;;;;;;;;;769942;182;918885;-66
2022/01/06 07:06:32;;;;;;;7.90;3.53;;;;;;;;;;766884;182;918691;-65
2022/01/06 07:08:58;;;;;;;5.63;2.93;;;;;;;;;;774481;182;918490;-65
2022/01/06 07:11:23;;;;;;;5.97;3.80;;;;;;;;;;767318;182;919229;-65
2022/01/06 07:13:49;;;;;;;4.70;3.87;;;;;;;;;;766076;182;918545;-65
2022/01/06 07:16:15;;;;;;;7.57;3.73;;;;;;;;;;765407;181;918543;-64
2022/01/06 07:18:41;;;;;;;7.70;4.27;;;;;;;;;;767167;182;918901;-65
2022/01/06 07:21:07;;;;;;;7.10;3.80;;;;;;;;;;754720;182;1049698;-65
2022/01/06 07:23:33;;;;;;;6.70;4.07;;;;;;;;;;762260;182;924156;-64
2022/01/06 07:25:58;;;;;;;8.93;4.73;;;;;;;;;;769877;182;1021102;-65
2022/01/06 07:28:24;;;;;;;6.70;3.73;;;;;;;;;;765828;182;918714;-65
2022/01/06 07:30:50;;;;;;;5.60;3.70;;;;;;;;;;766717;182;919326;-65
2022/01/06 07:33:16;;;;;;;8.37;4.50;;;;;;;;;;771067;182;918601;-65
2022/01/06 07:35:42;;;;;;;10.03;3.60;;;;;;;;;;764712;181;919761;-65
2022/01/06 07:38:08;;;;;;;6.87;3.43;;;;;;;;;;761463;183;919290;-65
2022/01/06 07:40:33;;;;;;;7.63;3.47;;;;;;;;;;772599;180;919015;-66
2022/01/06 07:42:59;;;;;;;8.93;3.63;;;;;;;;;;767385;182;919087;-65
2022/01/06 07:45:25;;;;;;;6.93;3.60;;;;;;;;;;765274;181;920272;-66
2022/01/06 07:47:56;;;;;;;7.03;3.87;;;;;;;;;;765611;183;917431;-65
2022/01/06 07:50:20;;;;;;;6.07;3.90;;;;;;;;;;769201;182;919036;-63
2022/01/06 07:52:46;;;;;;;5.03;3.40;;;;;;;;;;766387;182;919454;-65
2022/01/06 07:55:12;;;;;;;9.40;3.70;;;;;;;;;;764874;182;918849;-65
2022/01/06 07:57:37;;;;;;;14.50;4.67;;;;;;;;;;771062;183;920711;-66
2022/01/06 08:00:04;;;;;;;8.27;3.80;;;;;;;;;;763377;183;1048430;-65
2022/01/06 08:02:30;;;;;;;9.23;4.23;;;;;;;;;;764785;183;919634;-65
2022/01/06 08:04:56;;;;;;;11.03;4.47;;;;;;;;;;767190;183;917535;-63
2022/01/06 08:07:21;;;;;;;6.73;4.33;;;;;;;;;;773944;180;1017487;-64
2022/01/06 08:09:47;;;;;;;12.73;4.63;;;;;;;;;;762266;183;914610;-65
2022/01/06 08:12:13;;;;;;;23.37;4.70;;;;;;;;;;769370;180;915339;-66
2022/01/06 08:14:39;;;;;;;8.23;4.50;;;;;;;;;;770370;182;919088;-66
2022/01/06 08:17:05;;;;;;;10.13;4.30;;;;;;;;;;766898;182;918860;-66
2022/01/06 08:19:31;;;;;;;10.07;4.50;;;;;;;;;;767506;183;1020992;-65
2022/01/06 08:21:56;;;;;;;13.10;4.57;;;;;;;;;;769272;183;918555;-64
2022/01/06 08:24:22;;;;;;;6.93;3.97;;;;;;;;;;764893;183;920258;-63
2022/01/06 08:26:48;;;;;;;7.03;4.23;;;;;;;;;;768703;183;919525;-64
2022/01/06 08:29:14;;;;;;;6.03;4.17;;;;;;;;;;772742;182;1023186;-64
2022/01/06 08:31:40;;;;;;;6.40;3.83;;;;;;;;;;767851;182;919629;-65
2022/01/06 08:34:06;;;;;;;7.13;3.77;;;;;;;;;;766122;182;919393;-65
2022/01/06 08:36:31;;;;;;;12.13;3.90;;;;;;;;;;763708;182;1036577;-65
2022/01/06 08:38:57;;;;;;;9.33;3.13;;;;;;;;;;772256;183;918946;-65
2022/01/06 08:41:23;;;;;;;5.80;3.60;;;;;;;;;;765049;182;919377;-67
2022/01/06 08:43:49;;;;;;;7.37;3.97;;;;;;;;;;766322;183;919619;-64
2022/01/06 08:46:15;;;;;;;11.47;4.57;;;;;;;;;;772389;182;919067;-65
2022/01/06 08:48:41;;;;;;;7.80;4.40;;;;;;;;;;766025;183;918721;-65
2022/01/06 08:51:06;;;;;;;7.73;4.00;;;;;;;;;;764204;180;1020845;-65
2022/01/06 08:53:32;;;;;;;5.07;3.07;;;;;;;;;;770008;182;919069;-65
2022/01/06 08:55:58;;;;;;;10.17;3.53;;;;;;;;;;766585;182;919898;-63
2022/01/06 08:58:24;;;;;;;15.30;3.83;;;;;;;;;;766928;182;925851;-65
2022/01/06 09:00:50;;;;;;;11.30;4.67;;;;;;;;;;766916;182;918793;-65
2022/01/06 09:03:16;;;;;;;8.33;4.20;;;;;;;;;;775469;180;919864;-65
2022/01/06 09:05:41;;;;;;;5.00;3.50;;;;;;;;;;766168;183;918661;-65
2022/01/06 09:08:07;;;;;;;5.20;3.40;;;;;;;;;;766580;182;918635;-63
2022/01/06 09:10:34;;;;;;;6.60;4.07;;;;;;;;;;772046;182;917272;-65
2022/01/06 09:12:59;;;;;;;5.53;3.63;;;;;;;;;;765413;182;1019106;-64
2022/01/06 09:15:25;;;;;;;8.48;3.83;;;;;;;;;;767135;182;920059;-66
2022/01/06 09:17:51;;;;;;;5.60;4.07;;;;;;;;;;769635;183;1020904;-65
2022/01/06 09:20:16;;;;;;;7.50;4.30;;;;;;;;;;766538;183;919350;-66
2022/01/06 09:22:42;;;;;;;13.25;3.45;;;;;;;;;;768033;180;918664;-65
2022/01/06 09:25:08;;;;;;;7.37;3.97;;;;;;;;;;774857;182;919169;-66
2022/01/06 09:27:34;;;;;;;14.00;5.00;;;;;;;;;;767793;183;920289;-64
2022/01/06 09:30:00;;;;;;;6.10;3.50;;;;;;;;;;767334;182;918687;-66
2022/01/06 09:32:26;;;;;;;7.83;4.50;;;;;;;;;;765810;182;919088;-65
2022/01/06 09:34:52;;;;;;;9.47;4.60;;;;;;;;;;769409;183;919367;-66
2022/01/06 09:37:18;;;;;;;6.57;3.83;;;;;;;;;;766232;182;919576;-65
2022/01/06 09:39:45;;;;;;;12.47;4.60;;;;;;;;;;769623;182;918585;-66
2022/01/06 09:42:09;;;;;;;8.90;3.90;;;;;;;;;;774158;182;920010;-65
2022/01/06 09:44:35;;;;;;;5.73;3.40;;;;;;;;;;769210;182;916786;-66
2022/01/06 09:47:02;;;;;;;7.13;3.30;;;;;;;;;;762404;182;916413;-65
2022/01/06 09:49:27;;;;;;;10.20;3.17;;;;;;;;;;765496;182;916082;-66
2022/01/06 09:51:53;;;;;;;5.40;3.13;;;;;;;;;;768466;182;915883;-65
2022/01/06 09:54:18;;;;;;;11.53;3.40;;;;;;;;;;767166;183;930806;-65
2022/01/06 09:56:44;;;;;;;5.93;3.57;;;;;;;;;;762890;183;915942;-65
2022/01/06 09:59:10;;;;;;;11.23;3.10;;;;;;;;;;766958;183;918230;-66
2022/01/06 10:01:36;;;;;;;11.30;3.53;;;;;;;;;;767274;179;916004;-65
2022/01/06 10:04:02;;;;;;;9.50;3.73;;;;;;;;;;762867;182;919048;-63
2022/01/06 10:06:28;;;;;;;7.63;3.37;;;;;;;;;;772815;182;918548;-66
2022/01/06 10:08:55;;;;;;;4.97;2.10;;;;;;;;;;765834;182;919718;-66
2022/01/06 10:11:21;;;;;;;7.87;2.97;;;;;;;;;;765876;183;919499;-66
2022/01/06 10:13:53;;;;;;;5.10;2.37;;;;;;;;;;772085;183;919163;-66
2022/01/06 10:16:19;;;;;;;11.03;2.70;;;;;;;;;;772014;182;919526;-64
2022/01/06 10:18:50;;;;;;;3.90;2.30;;;;;;;;;;765670;182;919761;-65
2022/01/06 10:21:16;;;;;;;10.90;2.20;;;;;;;;;;761800;182;918859;-65
2022/01/06 10:23:42;;;;;;;4.40;1.93;;;;;;;;;;770897;183;918483;-66
2022/01/06 10:26:11;;;;;;;5.70;2.87;;;;;;;;;;767627;182;918936;-66
2022/01/06 10:28:38;;;;;;;4.37;2.67;;;;;;;;;;765148;183;919455;-63
2022/01/06 10:31:02;;;;;;;12.63;3.03;;;;;;;;;;765846;183;921120;-64
2022/01/06 10:33:33;;;;;;;9.20;2.57;;;;;;;;;;767336;182;919279;-66
2022/01/06 10:35:59;;;;;;;6.90;2.33;;;;;;;;;;767450;182;918843;-64
2022/01/06 10:38:25;;;;;;;5.83;2.50;;;;;;;;;;765348;182;919738;-64
2022/01/06 10:40:51;;;;;;;3.93;2.40;;;;;;;;;;770522;182;920270;-66
2022/01/06 10:43:17;;;;;;;4.90;2.33;;;;;;;;;;767077;182;918403;-65
2022/01/06 10:45:43;;;;;;;9.88;3.35;;;;;;;;;;762317;182;918531;-65
2022/01/06 10:48:09;;;;;;;7.47;2.93;;;;;;;;;;762506;183;920376;-64
2022/01/06 10:50:35;;;;;;;5.25;2.62;;;;;;;;;;771183;182;917317;-66
2022/01/06 10:53:01;;;;;;;4.83;2.60;;;;;;;;;;767745;182;918724;-64
2022/01/06 10:55:28;;;;;;;6.30;3.50;;;;;;;;;;767476;180;919660;-65
2022/01/06 10:57:56;;;;;;;6.23;3.70;;;;;;;;;;770687;183;919268;-65
2022/01/06 11:00:22;;;;;;;5.12;2.58;;;;;;;;;;767993;183;918783;-64
2022/01/06 11:02:47;;;;;;;5.10;2.50;;;;;;;;;;766086;182;919122;-64
2022/01/06 11:05:14;;;;;;;3.75;2.30;;;;;;;;;;768977;183;919314;-64
2022/01/06 11:07:40;;;;;;;4.50;3.00;;;;;;;;;;769382;182;919282;-65
2022/01/06 11:10:14;;;;;;;10.63;3.10;;;;;;;;;;764921;182;922847;-64
2022/01/06 11:12:33;;;;;;;6.23;3.00;;;;;;;;;;765024;182;918991;-63
2022/01/06 11:14:58;;;;;;;5.93;3.40;;;;;;;;;;772962;182;918565;-64
2022/01/06 11:17:24;;;;;;;7.30;3.63;;;;;;;;;;763332;181;1021635;-66
2022/01/06 11:19:50;;;;;;;4.70;2.47;;;;;;;;;;764709;182;920199;-66
2022/01/06 11:22:16;;;;;;;4.73;2.53;;;;;;;;;;773079;180;918419;-65
2022/01/06 11:24:42;;;;;;;4.97;3.47;;;;;;;;;;768412;183;918999;-66
2022/01/06 11:27:09;;;;;;;10.23;3.47;;;;;;;;;;763991;183;918362;-66
2022/01/06 11:29:34;;;;;;;4.90;3.53;;;;;;;;;;770356;182;1021341;-62
2022/01/06 11:32:01;;;;;;;9.23;7.17;;;;;;;;;;768064;182;918813;-65
2022/01/06 11:34:27;;;;;;;4.37;2.65;;;;;;;;;;762989;182;918546;-66
2022/01/06 11:36:54;;;;;;;4.03;2.73;;;;;;;;;;767542;182;923352;-64
2022/01/06 11:39:24;;;;;;;7.47;3.30;;;;;;;;;;770282;182;917997;-66
2022/01/06 11:41:51;;;;;;;5.13;2.80;;;;;;;;;;761966;183;919181;-66
2022/01/06 11:44:16;;;;;;;7.20;2.30;;;;;;;;;;768618;182;918962;-65
2022/01/06 11:46:42;;;;;;;2.70;2.00;;;;;;;;;;773639;181;919124;-64
2022/01/06 11:49:08;;;;;;;2.93;2.13;;;;;;;;;;773879;182;918979;-65
2022/01/06 11:51:36;;;;;;;7.27;2.57;;;;;;;;;;764170;179;918855;-65
2022/01/06 11:54:00;;;;;;;2.97;2.10;;;;;;;;;;762439;182;919247;-64
2022/01/06 11:56:26;;;;;;;3.50;1.73;;;;;;;;;;765299;182;877044;-66
2022/01/06 11:58:56;;;;;;;4.40;3.17;;;;;;;;;;766281;182;919441;-65
2022/01/06 12:01:22;;;;;;;3.87;2.57;;;;;;;;;;768001;183;920780;-65
2022/01/06 12:03:47;;;;;;;3.73;2.90;;;;;;;;;;773610;183;918703;-65
2022/01/06 12:06:19;;;;;;;3.17;2.20;;;;;;;;;;763533;182;918662;-66
2022/01/06 12:08:45;;;;;;;5.77;2.60;;;;;;;;;;763991;183;919424;-66
2022/01/06 12:11:16;;;;;;;5.35;3.03;;;;;;;;;;765448;183;917989;-65
2022/01/06 12:13:42;;;;;;;5.30;2.40;;;;;;;;;;765787;183;918833;-64
2022/01/06 12:16:08;;;;;;;5.77;3.00;;;;;;;;;;764783;180;918433;-65
2022/01/06 12:18:34;;;;;;;3.67;2.67;;;;;;;;;;766420;182;919375;-65
2022/01/06 12:21:00;;;;;;;3.50;2.50;;;;;;;;;;761558;183;918350;-64
2022/01/06 12:23:26;;;;;;;4.80;2.80;;;;;;;;;;772314;182;918518;-64
2022/01/06 12:25:55;;;;;;;3.90;2.33;;;;;;;;;;766815;183;918827;-65
2022/01/06 12:28:20;;;;;;;3.90;2.87;;;;;;;;;;766430;183;919382;-65
2022/01/06 12:30:46;;;;;;;8.10;3.97;;;;;;;;;;772080;182;918757;-65
2022/01/06 12:33:13;;;;;;;3.80;2.47;;;;;;;;;;768589;182;919290;-66
2022/01/06 12:35:38;;;;;;;3.70;2.50;;;;;;;;;;768425;182;920733;-65
2022/01/06 12:38:03;;;;;;;7.03;3.00;;;;;;;;;;770034;182;918887;-65
2022/01/06 12:40:32;;;;;;;5.40;3.43;;;;;;;;;;764315;183;919710;-64
2022/01/06 12:42:58;;;;;;;4.47;2.70;;;;;;;;;;763987;183;919866;-65
2022/01/06 12:45:24;;;;;;;6.03;2.70;;;;;;;;;;762011;181;917589;-65
2022/01/06 12:47:50;;;;;;;4.13;3.13;;;;;;;;;;766583;183;919613;-63
2022/01/06 12:50:16;;;;;;;5.37;2.67;;;;;;;;;;765933;183;920241;-65
2022/01/06 12:52:44;;;;;;;5.70;3.07;;;;;;;;;;766742;183;1021467;-63
2022/01/06 12:55:10;;;;;;;4.43;2.97;;;;;;;;;;772324;180;914770;-66
2022/01/06 12:57:36;;;;;;;3.87;2.40;;;;;;;;;;768585;181;916406;-65
2022/01/06 13:00:02;;;;;;;4.20;2.57;;;;;;;;;;766211;182;914862;-65
2022/01/06 13:02:28;;;;;;;6.30;2.60;;;;;;;;;;766737;182;914542;-63
2022/01/06 13:04:53;;;;;;;6.30;3.70;;;;;;;;;;772700;182;920969;-64
2022/01/06 13:07:19;;;;;;;5.10;2.90;;;;;;;;;;767815;182;919475;-66
2022/01/06 13:09:47;;;;;;;5.10;2.50;;;;;;;;;;765250;183;918854;-63
2022/01/06 13:12:20;;;;;;;6.10;2.63;;;;;;;;;;772223;183;919969;-65
2022/01/06 13:14:46;;;;;;;7.90;2.40;;;;;;;;;;773433;182;919588;-66
2022/01/06 13:17:12;;;;;;;8.23;3.13;;;;;;;;;;763890;182;918366;-65
2022/01/06 13:19:42;;;;;;;4.70;2.80;;;;;;;;;;765640;182;919021;-66
2022/01/06 13:22:05;;;;;;;5.67;3.10;;;;;;;;;;771483;183;921798;-65
2022/01/06 13:24:29;;;;;;;4.77;2.90;;;;;;;;;;762667;183;919034;-63
2022/01/06 13:26:57;;;;;;;4.17;2.40;;;;;;;;;;764015;183;919450;-65
2022/01/06 13:29:23;;;;;;;5.27;3.10;;;;;;;;;;773687;182;918134;-64
2022/01/06 13:31:49;;;;;;;4.43;2.60;;;;;;;;;;765819;181;920694;-65
2022/01/06 13:34:14;;;;;;;4.00;2.40;;;;;;;;;;763609;182;965545;-66
2022/01/06 13:36:41;;;;;;;4.10;3.10;;;;;;;;;;768933;182;915308;-62
2022/01/06 13:39:07;;;;;;;3.60;3.00;;;;;;;;;;776429;180;914276;-65
2022/01/06 13:41:34;;;;;;;4.33;3.00;;;;;;;;;;770951;183;617919;-65
2022/01/06 13:43:59;;;;;;;4.60;3.10;;;;;;;;;;771671;182;628076;-66
2022/01/06 13:46:30;;;;;;;4.23;2.63;;;;;;;;;;769063;183;627048;-65
2022/01/06 13:51:31;;;;;;;6.70;4.10;;;;;;;;;;755574;184;916429;-65
2022/01/06 13:53:57;;;;;;;6.40;4.00;;;;;;;;;;765984;182;920625;-65
2022/01/06 13:56:27;;;;;;;7.67;4.10;;;;;;;;;;770288;183;1021719;-65
2022/01/06 13:58:49;;;;;;;7.00;3.63;;;;;;;;;;767860;183;920155;-65
2022/01/06 14:01:14;;;;;;;7.60;3.17;;;;;;;;;;765380;180;919977;-64
2022/01/06 14:03:40;;;;;;;8.73;3.10;;;;;;;;;;768205;182;919341;-64
2022/01/06 14:06:06;;;;;;;5.00;2.83;;;;;;;;;;765952;183;918504;-64
2022/01/06 14:08:32;;;;;;;5.20;2.47;;;;;;;;;;768229;181;919428;-64
2022/01/06 14:10:58;;;;;;;4.47;2.23;;;;;;;;;;772518;179;917761;-65
2022/01/06 14:13:24;;;;;;;3.90;2.63;;;;;;;;;;767927;182;844418;-65
2022/01/06 14:15:50;;;;;;;5.27;2.90;;;;;;;;;;766433;182;1016434;-67
2022/01/06 14:18:15;;;;;;;5.50;2.37;;;;;;;;;;768435;182;918738;-66
2022/01/06 14:20:41;;;;;;;5.60;2.87;;;;;;;;;;771841;182;919801;-66
2022/01/06 14:23:07;;;;;;;4.60;2.83;;;;;;;;;;765248;182;920386;-65
2022/01/06 14:25:33;;;;;;;6.20;3.00;;;;;;;;;;769306;183;919125;-65
2022/01/06 14:27:59;;;;;;;7.33;2.50;;;;;;;;;;773933;182;628314;-65
2022/01/06 14:30:25;;;;;;;8.30;3.63;;;;;;;;;;768980;182;1060441;-65